Time;durP1;ratioP1;P1;durP2;ratioP2;P2;SDS_P1;SDS_P2;PMS_P1;PMS_P2;Temp;Humidity;BMP_temperature;BMP_pressure;BME280_temperature;BME280_humidity;BME280_pressure;Samples;Min_cycle;Max_cycle;Signal;HPM_P1;HPM_P2
2023/01/02 00:00:55;;;;;;;2.93;2.07;;;14.40;99.90;;;;;;5053796;28;20186;-70
2023/01/02 00:03:21;;;;;;;3.07;2.10;;;14.40;99.90;;;;;;5054978;28;20189;-70
2023/01/02 00:05:46;;;;;;;2.40;2.20;;;14.40;99.90;;;;;;5054976;28;20178;-70
2023/01/02 00:08:12;;;;;;;2.60;2.00;;;14.40;99.90;;;;;;5050322;28;20196;-70
2023/01/02 00:10:37;;;;;;;2.47;2.23;;;14.40;99.90;;;;;;5053692;28;20193;-70
2023/01/02 00:13:03;;;;;;;2.60;2.10;;;14.30;99.90;;;;;;5054874;28;20272;-70
2023/01/02 00:15:29;;;;;;;3.10;2.17;;;14.30;99.90;;;;;;5054800;28;20606;-70
2023/01/02 00:17:54;;;;;;;3.13;1.80;;;14.30;99.90;;;;;;5054749;28;20246;-70
2023/01/02 00:20:20;;;;;;;2.07;1.70;;;14.30;99.90;;;;;;5054500;28;20181;-70
2023/01/02 00:22:45;;;;;;;2.30;2.03;;;14.40;99.90;;;;;;5054665;28;20339;-70
2023/01/02 00:25:11;;;;;;;2.30;1.90;;;14.40;99.90;;;;;;5054697;28;20214;-70
2023/01/02 00:27:36;;;;;;;4.40;2.40;;;14.40;99.90;;;;;;5054778;28;20418;-70
2023/01/02 00:30:03;;;;;;;2.20;1.93;;;14.30;99.90;;;;;;5054270;28;20650;-71
2023/01/02 00:32:29;;;;;;;4.80;1.87;;;14.30;99.90;;;;;;5054414;28;20197;-70
2023/01/02 00:34:54;;;;;;;4.90;2.10;;;14.40;99.90;;;;;;5054516;28;20482;-70
2023/01/02 00:37:20;;;;;;;2.47;2.10;;;14.30;99.90;;;;;;5054369;28;20287;-71
2023/01/02 00:39:45;;;;;;;2.30;2.10;;;14.30;99.90;;;;;;5054059;28;20188;-70
2023/01/02 00:42:11;;;;;;;4.00;2.30;;;14.20;99.90;;;;;;5054350;28;20565;-70
2023/01/02 00:44:36;;;;;;;2.80;2.10;;;14.20;99.90;;;;;;5054340;28;20177;-70
2023/01/02 00:47:02;;;;;;;2.30;2.10;;;14.20;99.90;;;;;;5054275;28;20174;-70
2023/01/02 00:49:27;;;;;;;4.00;2.13;;;14.20;99.90;;;;;;5054028;28;20581;-70
2023/01/02 00:51:53;;;;;;;4.10;2.00;;;14.20;99.90;;;;;;5054089;28;20174;-70
2023/01/02 00:54:18;;;;;;;2.50;1.67;;;14.20;99.90;;;;;;5054122;28;20185;-71
2023/01/02 00:56:44;;;;;;;3.83;2.80;;;14.20;99.90;;;;;;5053895;28;20311;-70
2023/01/02 00:59:09;;;;;;;2.60;2.10;;;14.20;99.90;;;;;;5053680;28;20174;-70
2023/01/02 01:01:35;;;;;;;8.20;2.40;;;14.10;99.90;;;;;;5054011;28;20180;-70
2023/01/02 01:04:00;;;;;;;2.23;1.90;;;14.10;99.90;;;;;;5053910;28;20197;-70
2023/01/02 01:06:26;;;;;;;4.60;2.23;;;14.10;99.90;;;;;;5053935;28;20177;-71
2023/01/02 01:08:51;;;;;;;4.43;3.00;;;14.10;99.90;;;;;;5053600;28;20174;-71
2023/01/02 01:11:17;;;;;;;2.37;1.97;;;14.10;99.90;;;;;;5053617;28;20170;-70
2023/01/02 01:13:43;;;;;;;3.33;2.47;;;14.10;99.90;;;;;;5053658;28;20201;-70
2023/01/02 01:16:15;;;;;;;1.90;1.73;;;14.10;99.90;;;;;;5053791;28;20259;-70
2023/01/02 01:18:41;;;;;;;5.47;2.40;;;14.10;99.90;;;;;;5053301;28;20471;-70
2023/01/02 01:21:09;;;;;;;2.87;1.80;;;14.10;99.90;;;;;;5053622;28;20785;-70
2023/01/02 01:23:34;;;;;;;2.20;1.53;;;14.10;99.90;;;;;;5053512;28;20436;-70
2023/01/02 01:26:05;;;;;;;3.23;2.30;;;14.10;99.90;;;;;;5053517;28;20412;-70
2023/01/02 01:28:31;;;;;;;3.87;2.13;;;14.10;99.90;;;;;;5053218;28;20586;-70
2023/01/02 01:31:01;;;;;;;4.43;1.93;;;14.10;99.90;;;;;;5053465;28;20412;-70
2023/01/02 01:33:28;;;;;;;3.70;1.73;;;14.10;99.90;;;;;;5053374;28;20702;-70
2023/01/02 01:35:54;;;;;;;2.10;1.83;;;14.10;99.90;;;;;;5053622;28;20511;-70
2023/01/02 01:38:19;;;;;;;2.90;2.10;;;14.00;99.90;;;;;;5053096;28;20543;-70
2023/01/02 01:40:45;;;;;;;3.53;1.90;;;14.10;99.90;;;;;;5053220;28;20651;-70
2023/01/02 01:43:13;;;;;;;3.73;2.43;;;14.10;99.90;;;;;;5053123;28;20236;-70
2023/01/02 01:45:41;;;;;;;3.33;2.47;;;14.10;99.90;;;;;;5053182;28;20230;-70
2023/01/02 01:48:13;;;;;;;2.60;2.13;;;14.10;99.90;;;;;;5052946;28;20452;-70
2023/01/02 01:50:39;;;;;;;2.30;2.00;;;14.00;99.90;;;;;;5053161;28;20416;-70
2023/01/02 01:53:15;;;;;;;2.80;2.00;;;14.00;99.90;;;;;;5052954;28;20474;-70
2023/01/02 01:55:47;;;;;;;2.10;1.70;;;14.00;99.90;;;;;;5052870;28;20419;-70
2023/01/02 01:58:17;;;;;;;3.50;2.20;;;14.00;99.90;;;;;;5052550;28;20451;-70
2023/01/02 02:00:43;;;;;;;2.53;1.67;;;14.00;99.90;;;;;;5052966;28;20901;-71
2023/01/02 02:03:16;;;;;;;4.50;2.57;;;14.00;99.90;;;;;;5052806;28;20439;-70
2023/01/02 02:05:43;;;;;;;3.47;2.90;;;14.00;99.90;;;;;;5052821;28;20770;-70
2023/01/02 02:08:38;;;;;;;2.30;2.10;;;14.00;99.90;;;;;;5052674;28;20416;-70
2023/01/02 02:11:05;;;;;;;5.40;2.23;;;14.00;99.90;;;;;;5052563;28;20412;-70
2023/01/02 02:13:32;;;;;;;3.33;2.10;;;14.00;99.90;;;;;;5052769;28;20444;-70
2023/01/02 02:16:07;;;;;;;3.70;2.27;;;14.00;99.90;;;;;;5052728;28;20431;-70
2023/01/02 02:18:33;;;;;;;2.07;1.90;;;14.00;99.90;;;;;;5052224;28;20509;-70
2023/01/02 02:21:36;;;;;;;4.27;2.20;;;14.00;99.90;;;;;;5052520;28;20909;-70
2023/01/02 02:24:42;;;;;;;3.23;3.03;;;14.00;99.90;;;;;;5051804;28;20193;-70
2023/01/02 02:27:07;;;;;;;2.50;2.30;;;13.90;99.90;;;;;;5052411;28;20787;-70
2023/01/02 02:29:56;;;;;;;2.80;1.83;;;13.90;99.90;;;;;;5052067;28;20490;-70
2023/01/02 02:32:24;;;;;;;2.13;1.97;;;13.90;99.90;;;;;;5052336;28;20190;-70
2023/01/02 02:35:27;;;;;;;2.90;2.53;;;14.00;99.90;;;;;;5052327;28;20994;-70
2023/01/02 02:38:21;;;;;;;3.10;2.60;;;14.00;99.90;;;;;;5052144;28;20459;-70
2023/01/02 02:40:53;;;;;;;2.73;1.53;;;13.90;99.90;;;;;;5052211;28;20424;-70
2023/01/02 02:43:46;;;;;;;2.90;2.37;;;13.90;99.90;;;;;;5052118;28;20427;-70
2023/01/02 02:46:26;;;;;;;1.90;1.70;;;13.90;99.90;;;;;;5052072;28;21189;-70
2023/01/02 02:49:23;;;;;;;2.27;1.90;;;13.90;99.90;;;;;;5051950;28;20492;-70
2023/01/02 02:52:20;;;;;;;5.67;2.77;;;13.90;99.90;;;;;;5052096;28;20412;-70
2023/01/02 02:55:07;;;;;;;3.27;2.10;;;14.00;99.90;;;;;;5052020;28;20408;-70
2023/01/02 02:57:35;;;;;;;2.23;1.63;;;13.90;99.90;;;;;;5050656;28;20463;-70
2023/01/02 03:00:04;;;;;;;2.40;2.20;;;13.80;99.90;;;;;;5051750;28;20420;-70
2023/01/02 03:02:30;;;;;;;2.63;1.93;;;13.80;99.90;;;;;;5051823;28;20442;-70
2023/01/02 03:05:00;;;;;;;3.23;1.90;;;13.80;99.90;;;;;;5051896;28;20408;-70
2023/01/02 03:07:38;;;;;;;3.07;1.70;;;13.80;99.90;;;;;;5051861;28;20150;-70
2023/01/02 03:10:28;;;;;;;2.90;2.00;;;13.90;99.90;;;;;;5051673;28;20416;-70
2023/01/02 03:13:17;;;;;;;2.40;2.20;;;13.80;99.90;;;;;;5051732;28;20501;-70
2023/01/02 03:15:57;;;;;;;4.20;2.00;;;13.90;99.90;;;;;;5051848;28;20423;-70
2023/01/02 03:18:33;;;;;;;2.23;2.03;;;13.90;99.90;;;;;;5051421;28;20455;-70
2023/01/02 03:21:02;;;;;;;3.73;1.90;;;13.90;99.90;;;;;;5051833;28;20416;-70
2023/01/02 03:23:29;;;;;;;6.60;2.40;;;13.90;99.90;;;;;;5051661;28;20432;-70
2023/01/02 03:25:57;;;;;;;3.77;1.97;;;13.90;99.90;;;;;;5051626;28;20420;-70
2023/01/02 03:28:25;;;;;;;2.30;1.97;;;13.90;99.90;;;;;;5051436;28;20470;-70
2023/01/02 03:30:55;;;;;;;1.73;1.63;;;13.90;99.90;;;;;;5051703;28;20420;-70
2023/01/02 03:33:27;;;;;;;2.00;1.90;;;13.80;99.90;;;;;;5051766;28;20443;-70
2023/01/02 03:35:59;;;;;;;4.07;2.50;;;13.80;99.90;;;;;;5055644;28;20422;-70
2023/01/02 03:38:35;;;;;;;2.70;2.30;;;13.80;99.90;;;;;;5055218;28;20455;-69
2023/01/02 03:41:26;;;;;;;3.00;1.90;;;13.70;99.90;;;;;;5055562;28;20422;-69
2023/01/02 03:43:54;;;;;;;4.20;2.50;;;13.70;99.90;;;;;;5055378;28;20618;-70
2023/01/02 03:46:46;;;;;;;6.43;2.00;;;13.70;99.90;;;;;;5055518;28;20418;-69
2023/01/02 03:49:29;;;;;;;2.27;1.97;;;13.70;99.90;;;;;;5054715;28;20424;-70
2023/01/02 03:51:54;;;;;;;5.20;1.93;;;13.70;99.90;;;;;;5055308;28;20925;-70
2023/01/02 03:54:21;;;;;;;4.07;1.80;;;13.60;99.90;;;;;;5055288;28;20423;-70
2023/01/02 03:57:08;;;;;;;4.20;1.93;;;13.60;99.90;;;;;;5055050;28;20576;-70
2023/01/02 03:59:38;;;;;;;1.93;1.60;;;13.50;99.90;;;;;;5054914;28;20443;-69
2023/01/02 04:02:12;;;;;;;2.70;1.97;;;13.40;99.90;;;;;;5054994;28;20764;-70
2023/01/02 04:04:46;;;;;;;3.27;1.50;;;13.30;99.90;;;;;;5055155;28;20814;-70
2023/01/02 04:07:19;;;;;;;2.43;2.03;;;13.30;99.90;;;;;;5055180;28;20411;-70
2023/01/02 04:09:45;;;;;;;2.67;1.70;;;13.30;99.90;;;;;;5054534;28;20410;-70
2023/01/02 04:12:15;;;;;;;3.17;1.30;;;13.30;99.90;;;;;;5054917;28;20933;-70
2023/01/02 04:14:45;;;;;;;2.83;1.93;;;13.20;99.90;;;;;;5054958;28;20420;-70
2023/01/02 04:17:14;;;;;;;3.97;2.00;;;13.20;99.90;;;;;;5055194;28;20807;-70
2023/01/02 04:19:48;;;;;;;2.97;2.10;;;13.20;99.90;;;;;;5053232;28;21144;-70
2023/01/02 04:22:42;;;;;;;2.27;2.07;;;13.10;99.90;;;;;;5054658;28;20457;-70
2023/01/02 04:25:12;;;;;;;4.10;2.27;;;13.10;99.90;;;;;;5054686;28;20936;-70
2023/01/02 04:27:59;;;;;;;2.80;2.20;;;13.20;99.90;;;;;;5054747;28;20424;-70
2023/01/02 04:30:28;;;;;;;3.87;2.70;;;13.10;99.90;;;;;;5050412;28;20432;-70
2023/01/02 04:32:56;;;;;;;5.67;2.70;;;13.10;99.90;;;;;;5054383;28;20436;-70
2023/01/02 04:35:23;;;;;;;2.73;2.17;;;13.10;99.90;;;;;;5054575;28;20503;-70
2023/01/02 04:37:49;;;;;;;4.37;1.73;;;13.10;99.90;;;;;;5054433;28;20851;-70
2023/01/02 04:40:23;;;;;;;5.43;3.37;;;13.10;99.90;;;;;;5053905;28;20519;-70
2023/01/02 04:42:49;;;;;;;5.13;1.93;;;13.00;99.90;;;;;;5053070;28;20193;-70
2023/01/02 04:45:15;;;;;;;4.53;2.20;;;13.10;99.90;;;;;;5053766;28;20933;-70
2023/01/02 04:47:40;;;;;;;2.50;1.77;;;13.00;99.90;;;;;;5054263;28;20176;-70
2023/01/02 04:50:07;;;;;;;2.50;2.03;;;13.10;99.90;;;;;;5054023;28;20827;-70
2023/01/02 04:52:33;;;;;;;2.33;1.90;;;13.10;99.90;;;;;;5054087;28;20194;-70
2023/01/02 04:54:58;;;;;;;6.53;2.23;;;13.00;99.90;;;;;;5054357;28;20948;-70
2023/01/02 04:57:24;;;;;;;2.40;1.70;;;13.00;99.90;;;;;;5053950;28;20554;-70
2023/01/02 04:59:49;;;;;;;2.30;1.90;;;13.00;99.90;;;;;;5053731;28;20166;-70
2023/01/02 05:02:15;;;;;;;4.40;2.23;;;13.00;99.90;;;;;;5053966;28;20186;-70
2023/01/02 05:04:40;;;;;;;3.00;2.00;;;13.00;99.90;;;;;;5053995;28;20172;-70
2023/01/02 05:07:06;;;;;;;2.10;1.83;;;13.00;99.90;;;;;;5053939;28;20170;-70
2023/01/02 05:09:32;;;;;;;3.23;2.47;;;13.00;99.90;;;;;;5054124;28;20177;-69
2023/01/02 05:11:57;;;;;;;2.60;2.00;;;13.00;99.90;;;;;;5053820;28;20465;-70
2023/01/02 05:14:23;;;;;;;3.90;2.50;;;13.00;99.90;;;;;;5053781;28;20594;-70
2023/01/02 05:16:49;;;;;;;2.10;1.90;;;13.00;99.90;;;;;;5053833;28;20270;-70
2023/01/02 05:19:14;;;;;;;4.67;2.00;;;13.00;99.90;;;;;;5053495;28;20177;-70
2023/01/02 05:24:25;;;;;;;4.63;1.93;;;12.90;99.90;;;;;;5053630;28;20216;-70
2023/01/02 05:26:51;;;;;;;2.40;1.87;;;12.80;99.90;;;;;;5053525;28;20423;-70
2023/01/02 05:29:17;;;;;;;4.40;2.30;;;12.80;99.90;;;;;;5053294;28;20901;-70
2023/01/02 05:31:42;;;;;;;3.27;1.97;;;12.80;99.90;;;;;;5053597;28;20420;-70
2023/01/02 05:34:12;;;;;;;3.70;1.87;;;12.80;99.90;;;;;;5053365;28;20200;-70
2023/01/02 05:36:37;;;;;;;4.20;1.83;;;12.80;99.90;;;;;;5053314;28;20169;-70
2023/01/02 05:39:13;;;;;;;3.07;2.20;;;12.80;99.90;;;;;;5052945;28;20423;-70
2023/01/02 05:41:40;;;;;;;6.10;2.33;;;12.80;99.90;;;;;;5053345;28;20218;-70
2023/01/02 05:44:09;;;;;;;4.73;2.03;;;12.80;99.90;;;;;;5053160;28;20439;-70
2023/01/02 05:46:36;;;;;;;3.80;2.50;;;12.80;99.90;;;;;;5053228;28;20419;-70
2023/01/02 05:49:09;;;;;;;2.70;2.50;;;12.80;99.90;;;;;;5052818;28;20431;-70
2023/01/02 05:51:35;;;;;;;3.30;2.50;;;12.70;99.90;;;;;;5053126;28;20465;-70
2023/01/02 05:54:01;;;;;;;5.00;2.03;;;12.80;99.90;;;;;;5052794;28;20440;-70
2023/01/02 05:56:28;;;;;;;2.40;2.00;;;12.80;99.90;;;;;;5052807;28;20184;-70
2023/01/02 05:58:53;;;;;;;4.53;2.43;;;12.80;99.90;;;;;;5051746;28;20456;-70
2023/01/02 06:01:27;;;;;;;3.20;2.40;;;12.80;99.90;;;;;;5053018;28;20823;-70
2023/01/02 06:03:55;;;;;;;3.30;2.40;;;12.90;99.90;;;;;;5052772;28;20197;-70
2023/01/02 06:06:23;;;;;;;6.53;1.70;;;12.90;99.90;;;;;;5052771;28;20420;-70
2023/01/02 06:08:49;;;;;;;3.20;2.60;;;12.90;99.90;;;;;;5052470;28;20795;-70
2023/01/02 06:11:15;;;;;;;3.67;3.43;;;13.00;99.90;;;;;;5052710;28;20415;-70
2023/01/02 06:13:41;;;;;;;5.30;2.17;;;13.00;99.90;;;;;;5052669;28;20446;-70
2023/01/02 06:16:08;;;;;;;3.60;1.87;;;13.10;99.90;;;;;;5052638;28;20178;-70
2023/01/02 06:18:35;;;;;;;4.60;2.00;;;13.10;99.90;;;;;;5052190;28;20205;-70
2023/01/02 06:21:03;;;;;;;3.70;2.30;;;13.00;99.90;;;;;;5052522;28;20451;-70
2023/01/02 06:23:29;;;;;;;2.37;2.17;;;13.00;99.90;;;;;;5052360;28;20439;-70
2023/01/02 06:26:00;;;;;;;3.37;2.40;;;13.00;99.90;;;;;;5052523;28;20452;-70
2023/01/02 06:28:26;;;;;;;3.57;2.77;;;13.00;99.90;;;;;;5052046;28;20459;-70
2023/01/02 06:30:51;;;;;;;2.57;2.37;;;13.10;99.90;;;;;;5052454;28;20462;-70
2023/01/02 06:33:16;;;;;;;2.30;2.10;;;13.10;99.90;;;;;;5052267;28;20197;-70
2023/01/02 06:35:42;;;;;;;7.70;2.50;;;13.10;99.90;;;;;;5052259;28;20177;-70
2023/01/02 06:38:07;;;;;;;2.60;2.40;;;13.10;99.90;;;;;;5052092;28;20197;-70
2023/01/02 06:40:33;;;;;;;4.30;2.20;;;13.00;99.90;;;;;;5051995;28;20545;-70
2023/01/02 06:42:58;;;;;;;5.27;2.20;;;13.00;99.90;;;;;;5052140;28;20182;-70
2023/01/02 06:45:24;;;;;;;2.57;2.23;;;13.00;99.90;;;;;;5052289;28;20184;-70
2023/01/02 06:47:56;;;;;;;5.23;2.37;;;12.90;99.90;;;;;;5052247;28;20181;-70
2023/01/02 06:50:22;;;;;;;2.93;2.63;;;12.90;99.90;;;;;;5051772;28;20252;-70
2023/01/02 06:52:47;;;;;;;4.40;3.33;;;12.80;99.90;;;;;;5051956;28;20852;-70
2023/01/02 06:55:13;;;;;;;4.57;3.30;;;12.80;99.90;;;;;;5052138;28;20173;-70
2023/01/02 06:57:38;;;;;;;4.23;2.70;;;12.80;99.90;;;;;;5051866;28;20201;-69
2023/01/02 07:00:04;;;;;;;5.00;2.40;;;12.90;99.90;;;;;;5051721;28;20253;-70
2023/01/02 07:02:30;;;;;;;8.70;2.70;;;12.90;99.90;;;;;;5051880;28;20574;-69
2023/01/02 07:04:55;;;;;;;8.23;2.40;;;12.90;99.90;;;;;;5051955;28;20423;-69
2023/01/02 07:07:21;;;;;;;6.67;2.40;;;12.90;99.90;;;;;;5051859;28;20610;-70
2023/01/02 07:09:47;;;;;;;2.97;2.67;;;12.90;99.90;;;;;;5051347;28;20257;-69
2023/01/02 07:12:12;;;;;;;4.83;3.00;;;12.90;99.90;;;;;;5051846;28;20247;-69
2023/01/02 07:14:37;;;;;;;5.07;2.80;;;12.90;99.90;;;;;;5051881;28;20177;-70
2023/01/02 07:17:03;;;;;;;7.47;2.77;;;12.90;99.90;;;;;;5051760;28;20569;-70
2023/01/02 07:19:28;;;;;;;3.53;2.60;;;12.90;99.90;;;;;;5051541;28;20656;-69
2023/01/02 07:21:54;;;;;;;3.13;2.83;;;12.90;99.90;;;;;;5051647;28;20184;-70
2023/01/02 07:24:19;;;;;;;3.80;2.40;;;12.90;99.90;;;;;;5051712;28;20249;-70
2023/01/02 07:26:45;;;;;;;6.07;2.33;;;12.90;99.90;;;;;;5051872;28;20162;-70
2023/01/02 07:29:10;;;;;;;6.53;3.03;;;12.90;99.90;;;;;;5051523;28;20174;-70
2023/01/02 07:31:36;;;;;;;8.03;2.60;;;12.90;99.90;;;;;;5051686;28;20170;-70
2023/01/02 07:34:01;;;;;;;2.90;2.13;;;13.00;99.90;;;;;;5051504;28;20232;-69
2023/01/02 07:36:27;;;;;;;6.47;2.43;;;13.00;99.90;;;;;;5051631;28;20712;-70
2023/01/02 07:38:54;;;;;;;6.93;2.80;;;13.00;99.90;;;;;;5051289;28;20201;-70
2023/01/02 07:41:24;;;;;;;5.03;2.80;;;13.00;99.90;;;;;;5051557;28;20176;-70
2023/01/02 07:43:51;;;;;;;3.80;2.40;;;12.90;99.90;;;;;;5051495;28;20586;-70
2023/01/02 07:46:18;;;;;;;4.33;2.50;;;12.90;99.90;;;;;;5044068;28;20540;-69
2023/01/02 07:48:44;;;;;;;5.13;2.60;;;12.90;99.90;;;;;;5037300;28;20890;-69
2023/01/02 07:51:11;;;;;;;7.73;2.10;;;12.90;99.90;;;;;;5025508;28;20471;-69
2023/01/02 07:53:38;;;;;;;7.63;2.47;;;12.90;99.90;;;;;;5038145;28;20440;-69
2023/01/02 07:56:04;;;;;;;9.87;3.27;;;12.90;99.90;;;;;;5050947;28;20902;-69
2023/01/02 07:58:30;;;;;;;2.87;2.57;;;12.90;99.90;;;;;;5050776;28;20463;-69
2023/01/02 08:00:56;;;;;;;3.23;2.20;;;12.90;99.90;;;;;;5046515;28;20783;-69
2023/01/02 08:03:22;;;;;;;5.27;2.53;;;12.90;99.90;;;;;;5051455;28;20446;-69
2023/01/02 08:05:48;;;;;;;4.70;2.37;;;12.90;99.90;;;;;;5048852;28;20411;-69
2023/01/02 08:08:13;;;;;;;3.30;2.50;;;12.90;99.90;;;;;;5051081;28;20692;-70
2023/01/02 08:10:39;;;;;;;2.73;1.93;;;12.90;99.90;;;;;;5046758;28;20576;-69
2023/01/02 08:13:05;;;;;;;7.23;2.97;;;13.00;99.90;;;;;;5050757;28;20193;-69
2023/01/02 08:15:31;;;;;;;8.13;3.40;;;13.00;99.90;;;;;;5051156;28;20174;-70
2023/01/02 08:17:57;;;;;;;4.93;2.80;;;13.00;99.90;;;;;;5049650;28;20455;-69
2023/01/02 08:20:24;;;;;;;3.97;2.53;;;13.00;99.90;;;;;;5047095;28;20420;-70
2023/01/02 08:22:50;;;;;;;6.27;2.43;;;13.00;99.90;;;;;;5053128;28;20273;-69
2023/01/02 08:25:15;;;;;;;5.90;3.53;;;13.00;99.90;;;;;;5053670;28;20531;-69
2023/01/02 08:27:41;;;;;;;4.50;2.70;;;13.10;99.90;;;;;;5053837;28;20183;-69
2023/01/02 08:30:07;;;;;;;7.60;2.53;;;13.10;99.90;;;;;;5048152;28;20186;-69
2023/01/02 08:32:37;;;;;;;3.47;2.40;;;13.10;99.90;;;;;;5054605;28;20199;-69
2023/01/02 08:35:04;;;;;;;6.93;2.77;;;13.20;99.90;;;;;;5054450;28;20506;-69
2023/01/02 08:37:30;;;;;;;8.10;3.40;;;13.20;99.90;;;;;;5053761;28;20513;-69
2023/01/02 08:39:55;;;;;;;4.97;2.70;;;13.30;99.90;;;;;;5050783;28;20917;-69
2023/01/02 08:42:21;;;;;;;6.33;3.83;;;13.30;99.90;;;;;;5052456;28;20193;-70
2023/01/02 08:44:46;;;;;;;6.50;3.87;;;13.30;99.90;;;;;;5044232;28;20228;-70
2023/01/02 08:47:12;;;;;;;4.73;3.77;;;13.40;99.90;;;;;;5052594;28;20219;-70
2023/01/02 08:49:37;;;;;;;8.60;2.97;;;13.50;99.90;;;;;;5047212;28;20575;-70
2023/01/02 08:52:03;;;;;;;5.93;3.30;;;13.60;99.90;;;;;;5053668;28;20189;-70
2023/01/02 08:54:29;;;;;;;5.63;3.63;;;13.80;99.90;;;;;;5053694;28;20668;-70
2023/01/02 08:56:54;;;;;;;6.33;3.43;;;13.90;99.90;;;;;;5053824;28;20190;-70
2023/01/02 08:59:22;;;;;;;5.57;3.03;;;14.00;99.90;;;;;;5046078;28;20416;-70
2023/01/02 09:01:48;;;;;;;5.43;3.73;;;14.20;99.90;;;;;;5051717;28;20580;-69
2023/01/02 09:04:13;;;;;;;4.83;3.07;;;14.20;99.90;;;;;;5047602;28;20494;-68
2023/01/02 09:06:39;;;;;;;5.67;3.40;;;14.40;99.90;;;;;;5033795;28;20671;-68
2023/01/02 09:09:05;;;;;;;8.17;3.07;;;14.70;99.90;;;;;;5033617;28;20232;-67
2023/01/02 09:11:36;;;;;;;5.47;2.60;;;14.80;99.90;;;;;;5049390;28;20945;-68
2023/01/02 09:14:03;;;;;;;8.30;2.93;;;14.90;99.90;;;;;;5053818;28;20217;-67
2023/01/02 09:16:28;;;;;;;4.67;3.73;;;14.90;99.90;;;;;;5053878;28;20418;-68
2023/01/02 09:18:56;;;;;;;4.10;3.37;;;14.90;99.90;;;;;;5045445;28;20479;-68
2023/01/02 09:21:22;;;;;;;4.87;3.03;;;15.00;99.90;;;;;;5043767;28;20235;-68
2023/01/02 09:23:47;;;;;;;4.10;2.83;;;15.10;99.90;;;;;;5052292;28;20845;-68
2023/01/02 09:26:13;;;;;;;5.70;2.87;;;15.30;99.90;;;;;;5044346;28;20199;-67
2023/01/02 09:28:39;;;;;;;4.80;2.63;;;15.40;99.90;;;;;;5053197;28;20231;-71
2023/01/02 09:31:06;;;;;;;4.53;2.80;;;15.80;99.90;;;;;;5049525;28;20177;-68
2023/01/02 09:33:32;;;;;;;8.40;2.73;;;16.80;98.70;;;;;;5052834;28;20248;-69
2023/01/02 09:36:02;;;;;;;4.57;2.83;;;17.10;95.90;;;;;;5053389;28;21106;-68
2023/01/02 09:38:28;;;;;;;5.60;2.60;;;18.00;93.90;;;;;;5036154;28;20464;-69
2023/01/02 09:40:54;;;;;;;5.33;2.90;;;18.00;92.40;;;;;;5044164;28;20420;-72
2023/01/02 09:43:32;;;;;;;3.30;3.00;;;17.50;92.40;;;;;;5042800;28;20448;-68
2023/01/02 09:46:00;;;;;;;6.10;3.40;;;16.90;93.20;;;;;;5053154;28;20412;-68
2023/01/02 09:48:32;;;;;;;6.03;4.53;;;16.50;94.00;;;;;;5051927;28;20420;-69
2023/01/02 09:50:59;;;;;;;3.80;2.70;;;16.20;95.20;;;;;;5048663;28;20952;-69
2023/01/02 09:53:25;;;;;;;5.50;2.57;;;16.10;95.30;;;;;;5052694;28;20432;-67
2023/01/02 09:56:11;;;;;;;4.67;2.23;;;16.00;94.80;;;;;;5047876;28;20433;-68
2023/01/02 09:59:05;;;;;;;2.93;2.17;;;16.20;94.70;;;;;;5032698;28;20510;-68
2023/01/02 10:01:42;;;;;;;5.10;2.60;;;16.60;93.80;;;;;;5048115;28;20535;-68
2023/01/02 10:04:33;;;;;;;2.90;2.03;;;16.70;92.90;;;;;;5052682;28;21184;-68
2023/01/02 10:07:16;;;;;;;4.40;2.27;;;16.60;92.30;;;;;;5052054;28;20791;-68
2023/01/02 10:09:51;;;;;;;4.07;2.33;;;16.60;93.10;;;;;;5049553;28;20432;-68
2023/01/02 10:12:28;;;;;;;3.90;2.70;;;16.80;92.60;;;;;;5048916;28;20484;-68
2023/01/02 10:15:00;;;;;;;7.67;2.17;;;17.50;91.60;;;;;;5032635;28;20953;-68
2023/01/02 10:17:30;;;;;;;3.53;2.13;;;18.40;89.80;;;;;;5032692;28;20452;-67
2023/01/02 10:20:02;;;;;;;6.30;3.20;;;18.90;86.80;;;;;;5043985;28;20451;-68
2023/01/02 10:22:41;;;;;;;5.00;2.67;;;18.90;84.10;;;;;;5052502;28;21016;-68
2023/01/02 10:25:21;;;;;;;3.53;2.93;;;18.90;83.90;;;;;;5051969;28;20459;-67
2023/01/02 10:27:51;;;;;;;6.40;3.63;;;19.30;81.50;;;;;;5052535;28;20411;-68
2023/01/02 10:30:23;;;;;;;5.37;2.87;;;19.60;81.30;;;;;;5048875;28;20796;-68
2023/01/02 10:32:59;;;;;;;7.30;2.73;;;19.40;80.00;;;;;;5041458;28;20966;-68
2023/01/02 10:35:41;;;;;;;4.97;2.57;;;19.20;80.50;;;;;;5032400;28;20924;-69
2023/01/02 10:38:15;;;;;;;3.50;2.90;;;19.50;80.70;;;;;;5037349;28;20464;-68
2023/01/02 10:40:47;;;;;;;4.33;3.33;;;19.50;78.40;;;;;;5048304;28;20431;-68
2023/01/02 10:43:13;;;;;;;2.97;2.30;;;19.40;77.70;;;;;;5051714;28;20813;-68
2023/01/02 10:45:40;;;;;;;5.80;2.60;;;19.60;76.90;;;;;;5039334;28;20436;-68
2023/01/02 10:48:08;;;;;;;3.80;2.83;;;19.80;76.70;;;;;;5032088;28;20420;-68
2023/01/02 10:50:46;;;;;;;4.80;2.50;;;20.70;73.60;;;;;;5040092;28;20427;-68
2023/01/02 10:53:19;;;;;;;7.70;4.60;;;21.60;69.80;;;;;;5043066;28;20440;-68
2023/01/02 10:55:45;;;;;;;3.53;2.47;;;22.30;67.50;;;;;;5032011;28;20432;-68
2023/01/02 10:58:22;;;;;;;4.63;2.97;;;23.20;62.40;;;;;;5036124;28;20456;-68
2023/01/02 11:01:07;;;;;;;3.93;2.50;;;23.90;59.00;;;;;;5048281;28;20173;-69
2023/01/02 11:03:33;;;;;;;4.83;3.30;;;23.00;58.70;;;;;;5051134;28;20960;-68
2023/01/02 11:05:59;;;;;;;3.70;3.00;;;22.70;59.80;;;;;;5051609;28;20474;-69
2023/01/02 11:08:37;;;;;;;8.97;2.93;;;23.50;58.70;;;;;;5052032;28;20221;-69
2023/01/02 11:11:17;;;;;;;3.27;2.40;;;23.60;57.70;;;;;;5048119;28;20795;-69
2023/01/02 11:13:48;;;;;;;6.60;2.80;;;24.20;56.40;;;;;;5034109;28;20962;-69
2023/01/02 11:16:15;;;;;;;6.53;3.20;;;24.20;55.50;;;;;;5031996;28;20425;-68
2023/01/02 11:18:50;;;;;;;5.83;4.30;;;25.30;53.60;;;;;;5039729;28;20475;-68
2023/01/02 11:21:28;;;;;;;6.90;3.20;;;25.70;51.80;;;;;;5045917;28;20439;-68
2023/01/02 11:24:03;;;;;;;7.30;2.67;;;25.40;51.60;;;;;;5050605;28;20471;-68
2023/01/02 11:26:30;;;;;;;7.37;3.20;;;25.10;51.20;;;;;;5051428;28;20408;-68
2023/01/02 11:29:05;;;;;;;6.07;2.20;;;23.90;51.70;;;;;;5050316;28;20542;-67
2023/01/02 11:31:34;;;;;;;7.57;2.57;;;22.50;53.40;;;;;;5047512;28;20443;-69
2023/01/02 11:34:09;;;;;;;6.20;3.00;;;21.70;55.10;;;;;;5052546;28;20444;-69
2023/01/02 11:36:35;;;;;;;10.03;3.97;;;21.10;56.50;;;;;;5052060;28;20435;-68
2023/01/02 11:39:19;;;;;;;5.30;2.60;;;20.40;58.10;;;;;;5051542;28;20537;-68
2023/01/02 11:44:43;;;;;;;5.60;3.10;;;20.00;60.00;;;;;;5050032;28;20435;-69
2023/01/02 11:47:12;;;;;;;9.37;4.77;;;22.20;57.10;;;;;;5050247;28;20459;-68
2023/01/02 11:49:43;;;;;;;11.10;4.20;;;22.90;54.70;;;;;;5045817;28;20467;-69
2023/01/02 11:52:14;;;;;;;9.77;3.83;;;22.90;54.70;;;;;;5051993;28;20524;-68
2023/01/02 11:54:48;;;;;;;8.97;4.27;;;21.90;56.30;;;;;;5050816;28;20438;-67
2023/01/02 11:57:24;;;;;;;13.13;4.60;;;20.90;59.40;;;;;;5034869;28;20521;-67
2023/01/02 11:59:54;;;;;;;6.00;3.90;;;20.10;60.00;;;;;;5037765;28;20411;-67
2023/01/02 12:02:30;;;;;;;11.27;3.87;;;19.60;61.40;;;;;;5053584;28;20454;-68
2023/01/02 12:04:55;;;;;;;11.37;3.60;;;19.00;62.50;;;;;;5055046;28;20472;-68
2023/01/02 12:07:51;;;;;;;18.53;9.60;;;18.70;64.60;;;;;;5054292;28;20436;-70
2023/01/02 12:10:29;;;;;;;13.83;4.50;;;18.60;66.60;;;;;;5050718;28;20200;-68
2023/01/02 12:13:32;;;;;;;9.60;3.37;;;18.50;66.80;;;;;;5053555;28;20447;-70
2023/01/02 12:16:06;;;;;;;5.67;3.10;;;18.30;66.80;;;;;;5040066;28;20443;-68
2023/01/02 12:19:12;;;;;;;3.37;2.53;;;18.20;69.40;;;;;;5045755;28;20488;-68
2023/01/02 12:21:53;;;;;;;5.83;3.43;;;18.10;69.50;;;;;;5051601;28;20432;-66
2023/01/02 12:24:44;;;;;;;4.60;2.77;;;18.00;69.60;;;;;;5054414;28;20420;-67
2023/01/02 12:27:20;;;;;;;6.03;3.20;;;18.00;70.80;;;;;;5040206;28;20970;-68
2023/01/02 12:30:01;;;;;;;8.63;2.97;;;18.20;71.70;;;;;;5036656;28;20450;-68
2023/01/02 12:33:04;;;;;;;9.53;3.37;;;18.30;69.80;;;;;;5051809;28;20879;-68
2023/01/02 12:35:56;;;;;;;6.87;3.27;;;18.70;69.80;;;;;;5033329;28;20866;-68
2023/01/02 12:38:43;;;;;;;5.40;3.17;;;18.80;68.80;;;;;;5042892;28;20495;-70
2023/01/02 12:41:56;;;;;;;5.00;2.80;;;19.10;69.30;;;;;;5041873;28;20944;-67
2023/01/02 12:44:41;;;;;;;7.10;3.03;;;19.80;66.80;;;;;;5042418;28;20440;-68
2023/01/02 12:47:06;;;;;;;6.43;3.30;;;21.40;63.80;;;;;;5034413;28;20428;-68
2023/01/02 12:49:59;;;;;;;5.63;3.13;;;22.60;60.20;;;;;;5047449;28;20949;-68
2023/01/02 12:52:51;;;;;;;6.13;3.73;;;22.80;58.20;;;;;;5053277;28;20658;-67
2023/01/02 12:55:47;;;;;;;5.07;3.10;;;23.40;57.90;;;;;;5045459;28;20428;-68
2023/01/02 12:58:27;;;;;;;8.53;3.40;;;22.70;56.70;;;;;;5052813;28;20479;-67
2023/01/02 13:01:17;;;;;;;10.23;4.17;;;22.40;57.60;;;;;;5050610;28;20420;-67
2023/01/02 13:03:52;;;;;;;7.20;3.07;;;22.00;58.20;;;;;;5044094;28;20455;-66
2023/01/02 13:06:22;;;;;;;4.20;3.10;;;21.80;58.10;;;;;;5033514;28;20468;-66
2023/01/02 13:09:08;;;;;;;11.03;3.00;;;21.10;59.30;;;;;;5033490;28;20425;-66
2023/01/02 13:11:47;;;;;;;7.50;3.33;;;21.20;59.20;;;;;;5047369;28;20431;-66